NCAR-RAP Real-Time Weather Data

Output produced by METARs form (12 May 2021  12:37 UTC)
found at http://weather.rap.ucar.edu/surface/
 
KMLU 121153Z 03010G16KT 10SM OVC008 16/14 A3014 RMK AO2 SLP205 70078 T01560144 10161 20150 53021
KMLU 121053Z 03007KT 10SM OVC005 16/14 A3012 RMK AO2 CIG 004V009 SLP197 T01560144
KMLU 121040Z 04010KT 10SM OVC005 15/14 A3011 RMK AO2 T01500144
KMLU 120953Z AUTO 04012KT 4SM BR OVC004 16/15 A3009 RMK AO2 SLP187 T01560150
KMLU 120909Z AUTO 01009KT 3SM BR OVC003 16/15 A3008 RMK AO2 T01560150
KMLU 120853Z AUTO 02009KT 2 1/2SM BR OVC003 16/15 A3008 RMK AO2 SLP184 T01560150 51012
KMLU 120753Z AUTO 03007KT 5SM BR OVC004 16/16 A3008 RMK AO2 SLP183 T01560156
KMLU 120738Z AUTO 02006KT 9SM OVC004 16/16 A3008 RMK AO2 T01610156
KMLU 120653Z AUTO 02009KT 10SM OVC005 16/16 A3007 RMK AO2 SLP182 T01610156
KMLU 120553Z AUTO 03007KT 10SM OVC006 16/16 A3004 RMK AO2 SLP172 60039 T01610156 10189 20156 402170156 55013
KMLU 120453Z AUTO 07006KT 10SM OVC006 16/16 A3004 RMK AO2 SLP171 T01610156
KMLU 120353Z AUTO 05011G21KT 10SM OVC007 16/15 A3003 RMK AO2 RAE38 SLP168 P0000 T01560150
KMLU 120324Z AUTO 08016G24KT 10SM -RA BKN008 BKN022 OVC110 16/15 A2999 RMK AO2 P0000 T01560150
KMLU 120304Z AUTO 07012KT 10SM -RA SCT007 BKN110 16/15 A3005 RMK AO2 PRESFR P0000 T01560150
KMLU 120253Z AUTO 07007KT 10SM -RA FEW080 BKN110 16/15 A3008 RMK AO2 WSHFT 0200 PRESFR SLP185 P0008 60039 T01560150 50000
KMLU 120214Z 05013KT 4SM RA BR SCT008 BKN049 OVC070 16/16 A3011 RMK AO2 WSHFT 0200 P0006 T01610156
KMLU 120210Z 03012G22KT 4SM +RA BR SCT010 BKN044 OVC055 16/16 A3012 RMK AO2 PRESFR P0005 T01610156
KMLU 120204Z 36017G22KT 6SM RA BR BKN009 BKN015 OVC041 16/16 A3013 RMK AO2 P0002 T01610156
KMLU 120153Z 33015KT 3SM +RA BR OVC010 16/16 A3014 RMK AO2 PRESRR SLP206 P0014 T01610156
KMLU 120053Z 36015KT 10SM -RA OVC011 18/17 A3007 RMK AO2 SLP183 P0017 T01780167
KMLU 120051Z 36017KT 10SM -RA OVC011 18/17 A3008 RMK AO2 P0017
KMLU 120015Z 01013G18KT 3SM -RA BR BKN007 BKN012 OVC031 18/18 A3005 RMK AO2 CIG 005V009 P0011 T01830178
KMLU 120009Z 01011KT 1 3/4SM +RA BR BKN007 OVC031 18/18 A3005 RMK AO2 CIG 005V012 P0010 T01830178
KMLU 112353Z 36013KT 5SM -RA BR OVC007 19/18 A3005 RMK AO2 LTG DSNT NE RAB02 CIG 004V010 SLP174 P0007 60014 T01890183 10217 20189 53023
KMLU 112339Z 35014G18KT 1SM -RA BR BKN004 OVC018 19/19 A3004 RMK AO2 LTG DSNT N RAB02 P0003 T01940189
KMLU 112336Z 34012KT 7SM -RA BKN006 OVC018 19/19 A3005 RMK AO2 LTG DSNT N RAB02 CIG 004V008 PRESRR P0001 T01940189
KMLU 112327Z 36008KT 9SM -RA SCT006 BKN018 OVC023 20/19 A3003 RMK AO2 LTG DSNT N RAB02 P0000 T02000189
KMLU 112253Z 04004KT 10SM BKN018 OVC070 21/19 A3000 RMK AO2 LTG DSNT N AND NE RAE09 TSE09 SLP158 P0001 T02060194
KMLU 112235Z 03006KT 10SM BKN019 OVC023 21/19 A2999 RMK AO2 LTG DSNT NW-E RAE09 TSE09 P0001 T02060194
KMLU 112215Z 02007KT 10SM VCTS BKN015 BKN060 OVC090 21/19 A2999 RMK AO2 LTG DSNT ALQDS RAE09 TSE09 P0001 T02060194
KMLU 112200Z 07004KT 8SM -TSRA BKN015 BKN080 OVC090 21/19 A2998 RMK AO2 LTG DSNT W AND NW P0001 T02060194
KMLU 112153Z 05006KT 3SM TSRA BR BKN013 BKN080 OVC090 20/19 A2997 RMK AO2 LTG DSNT W AND NW RAB49 TSB29 SLP149 P0006 T02000189